sensor_id;sensor_type;location;lat;lon;timestamp;pressure;altitude;pressure_sealevel;temperature;humidity
27643;BME280;15053;48.618;10.024;2023-01-31T00:01:15;94930.97;;;2.15;87.17
27643;BME280;15053;48.618;10.024;2023-01-31T00:03:43;94930.41;;;2.13;87.13
27643;BME280;15053;48.618;10.024;2023-01-31T00:06:17;94922.16;;;2.11;86.67
27643;BME280;15053;48.618;10.024;2023-01-31T00:08:46;94921.00;;;2.07;86.79
27643;BME280;15053;48.618;10.024;2023-01-31T00:11:14;94920.44;;;2.05;86.56
27643;BME280;15053;48.618;10.024;2023-01-31T00:13:41;94921.00;;;2.07;86.84
27643;BME280;15053;48.618;10.024;2023-01-31T00:16:09;94922.59;;;2.08;86.78
27643;BME280;15053;48.618;10.024;2023-01-31T00:18:36;94928.16;;;2.05;86.56
27643;BME280;15053;48.618;10.024;2023-01-31T00:21:10;94923.00;;;2.05;86.78
27643;BME280;15053;48.618;10.024;2023-01-31T00:23:38;94926.00;;;2.02;86.97
27643;BME280;15053;48.618;10.024;2023-01-31T00:26:08;94923.09;;;1.99;86.68
27643;BME280;15053;48.618;10.024;2023-01-31T00:28:34;94920.75;;;1.97;87.28
27643;BME280;15053;48.618;10.024;2023-01-31T00:31:01;94925.09;;;1.97;87.24
27643;BME280;15053;48.618;10.024;2023-01-31T00:33:27;94919.97;;;1.97;87.30
27643;BME280;15053;48.618;10.024;2023-01-31T00:35:54;94928.09;;;1.94;87.43
27643;BME280;15053;48.618;10.024;2023-01-31T00:38:21;94919.25;;;1.90;87.94
27643;BME280;15053;48.618;10.024;2023-01-31T00:40:52;94914.75;;;1.85;88.11
27643;BME280;15053;48.618;10.024;2023-01-31T00:43:18;94918.31;;;1.84;88.19
27643;BME280;15053;48.618;10.024;2023-01-31T00:45:45;94913.84;;;1.79;88.16
27643;BME280;15053;48.618;10.024;2023-01-31T00:48:11;94926.91;;;1.78;88.64
27643;BME280;15053;48.618;10.024;2023-01-31T00:50:38;94912.72;;;1.75;88.14
27643;BME280;15053;48.618;10.024;2023-01-31T00:53:05;94913.72;;;1.74;88.86
27643;BME280;15053;48.618;10.024;2023-01-31T00:55:31;94922.63;;;1.72;88.65
27643;BME280;15053;48.618;10.024;2023-01-31T00:57:58;94914.38;;;1.70;88.77
27643;BME280;15053;48.618;10.024;2023-01-31T01:00:24;94909.66;;;1.67;88.45
27643;BME280;15053;48.618;10.024;2023-01-31T01:02:51;94910.09;;;1.64;88.37
27643;BME280;15053;48.618;10.024;2023-01-31T01:05:18;94924.47;;;1.65;88.84
27643;BME280;15053;48.618;10.024;2023-01-31T01:07:45;94923.13;;;1.62;88.93
27643;BME280;15053;48.618;10.024;2023-01-31T01:10:11;94919.00;;;1.61;89.04
27643;BME280;15053;48.618;10.024;2023-01-31T01:12:39;94923.13;;;1.62;88.79
27643;BME280;15053;48.618;10.024;2023-01-31T01:15:06;94924.34;;;1.60;88.66
27643;BME280;15053;48.618;10.024;2023-01-31T01:17:32;94922.97;;;1.57;88.32
27643;BME280;15053;48.618;10.024;2023-01-31T01:19:59;94928.34;;;1.56;88.54
27643;BME280;15053;48.618;10.024;2023-01-31T01:22:29;94922.41;;;1.55;88.51
27643;BME280;15053;48.618;10.024;2023-01-31T01:24:56;94922.66;;;1.54;88.54
27643;BME280;15053;48.618;10.024;2023-01-31T01:27:23;94930.53;;;1.52;88.72
27643;BME280;15053;48.618;10.024;2023-01-31T01:29:49;94918.50;;;1.53;88.74
27643;BME280;15053;48.618;10.024;2023-01-31T01:32:16;94920.50;;;1.51;88.24
27643;BME280;15053;48.618;10.024;2023-01-31T01:34:42;94920.34;;;1.46;88.10
27643;BME280;15053;48.618;10.024;2023-01-31T01:37:09;94913.09;;;1.43;88.23
27643;BME280;15053;48.618;10.024;2023-01-31T01:39:37;94915.22;;;1.46;87.78
27643;BME280;15053;48.618;10.024;2023-01-31T01:42:04;94930.03;;;1.44;88.52
27643;BME280;15053;48.618;10.024;2023-01-31T01:44:47;94921.34;;;1.45;88.27
27643;BME280;15053;48.618;10.024;2023-01-31T01:50:07;94925.91;;;1.43;87.94
27643;BME280;15053;48.618;10.024;2023-01-31T01:52:41;94926.91;;;1.42;87.93
27643;BME280;15053;48.618;10.024;2023-01-31T01:55:22;94928.91;;;1.40;87.83
27643;BME280;15053;48.618;10.024;2023-01-31T01:57:54;94927.34;;;1.39;88.15
27643;BME280;15053;48.618;10.024;2023-01-31T02:00:24;94931.66;;;1.38;87.87
27643;BME280;15053;48.618;10.024;2023-01-31T02:02:55;94926.97;;;1.35;87.31
27643;BME280;15053;48.618;10.024;2023-01-31T02:05:28;94922.44;;;1.37;87.57
27643;BME280;15053;48.618;10.024;2023-01-31T02:07:58;94938.94;;;1.41;86.88
27643;BME280;15053;48.618;10.024;2023-01-31T02:10:39;94929.66;;;1.40;87.67
27643;BME280;15053;48.618;10.024;2023-01-31T02:13:07;94932.88;;;1.36;87.31
27643;BME280;15053;48.618;10.024;2023-01-31T02:15:34;94937.44;;;1.34;87.72
27643;BME280;15053;48.618;10.024;2023-01-31T02:18:01;94930.19;;;1.31;87.67
27643;BME280;15053;48.618;10.024;2023-01-31T02:30:08;94937.72;;;1.26;87.00
27643;BME280;15053;48.618;10.024;2023-01-31T02:36:15;94940.16;;;1.21;86.97
27643;BME280;15053;48.618;10.024;2023-01-31T02:39:02;94942.91;;;1.19;87.29
27643;BME280;15053;48.618;10.024;2023-01-31T02:41:42;94935.44;;;1.17;87.14
27643;BME280;15053;48.618;10.024;2023-01-31T02:48:00;94943.97;;;1.11;88.29
27643;BME280;15053;48.618;10.024;2023-01-31T02:50:40;94947.94;;;1.07;89.09
27643;BME280;15053;48.618;10.024;2023-01-31T02:53:23;94942.06;;;1.07;88.52
27643;BME280;15053;48.618;10.024;2023-01-31T02:56:18;94946.16;;;1.08;89.43
27643;BME280;15053;48.618;10.024;2023-01-31T02:58:55;94942.25;;;1.05;89.52
27643;BME280;15053;48.618;10.024;2023-01-31T03:01:29;94951.28;;;1.08;90.30
27643;BME280;15053;48.618;10.024;2023-01-31T03:03:59;94967.06;;;1.11;90.91
27643;BME280;15053;48.618;10.024;2023-01-31T03:09:09;94967.44;;;1.15;90.88
27643;BME280;15053;48.618;10.024;2023-01-31T03:14:28;94976.31;;;1.12;90.64
27643;BME280;15053;48.618;10.024;2023-01-31T03:18:18;94973.75;;;1.12;90.60
27643;BME280;15053;48.618;10.024;2023-01-31T03:20:17;94975.31;;;1.13;90.96
27643;BME280;15053;48.618;10.024;2023-01-31T03:22:57;94980.03;;;1.16;91.13
27643;BME280;15053;48.618;10.024;2023-01-31T03:25:28;94976.91;;;1.14;91.19
27643;BME280;15053;48.618;10.024;2023-01-31T03:28:02;94986.72;;;1.17;92.11
27643;BME280;15053;48.618;10.024;2023-01-31T03:30:36;94978.25;;;1.17;91.59
27643;BME280;15053;48.618;10.024;2023-01-31T03:33:11;94980.03;;;1.16;91.54
27643;BME280;15053;48.618;10.024;2023-01-31T03:35:40;94972.91;;;1.18;92.33
27643;BME280;15053;48.618;10.024;2023-01-31T03:38:17;94969.75;;;1.16;91.91
27643;BME280;15053;48.618;10.024;2023-01-31T03:44:06;94975.69;;;1.17;91.45
27643;BME280;15053;48.618;10.024;2023-01-31T03:46:41;94976.53;;;1.11;92.25
27643;BME280;15053;48.618;10.024;2023-01-31T03:49:12;94991.50;;;1.14;92.50
27643;BME280;15053;48.618;10.024;2023-01-31T03:51:45;94994.06;;;1.14;91.74
27643;BME280;15053;48.618;10.024;2023-01-31T03:54:22;94992.28;;;1.14;92.12
27643;BME280;15053;48.618;10.024;2023-01-31T03:56:55;94985.56;;;1.13;92.26
27643;BME280;15053;48.618;10.024;2023-01-31T03:59:28;94977.31;;;1.11;91.52
27643;BME280;15053;48.618;10.024;2023-01-31T04:01:58;94977.72;;;1.08;92.34
27643;BME280;15053;48.618;10.024;2023-01-31T04:04:31;94982.84;;;1.08;92.48
27643;BME280;15053;48.618;10.024;2023-01-31T04:07:02;94980.50;;;1.07;91.96
27643;BME280;15053;48.618;10.024;2023-01-31T04:09:29;94971.25;;;1.06;91.80
27643;BME280;15053;48.618;10.024;2023-01-31T04:11:59;94980.72;;;1.05;92.16
27643;BME280;15053;48.618;10.024;2023-01-31T04:14:27;94976.56;;;1.04;92.00
27643;BME280;15053;48.618;10.024;2023-01-31T04:16:53;94991.38;;;1.02;92.40
27643;BME280;15053;48.618;10.024;2023-01-31T04:19:20;94999.63;;;1.04;92.20
27643;BME280;15053;48.618;10.024;2023-01-31T04:21:46;95009.91;;;1.04;92.41
27643;BME280;15053;48.618;10.024;2023-01-31T04:24:13;95009.69;;;1.06;92.28
27643;BME280;15053;48.618;10.024;2023-01-31T04:26:39;95006.91;;;1.07;92.47
27643;BME280;15053;48.618;10.024;2023-01-31T04:29:06;95015.41;;;1.08;91.71
27643;BME280;15053;48.618;10.024;2023-01-31T04:31:32;95013.84;;;1.07;92.51
27643;BME280;15053;48.618;10.024;2023-01-31T04:33:59;95016.19;;;1.08;92.66
27643;BME280;15053;48.618;10.024;2023-01-31T04:36:26;95021.31;;;1.08;92.16
27643;BME280;15053;48.618;10.024;2023-01-31T04:38:52;95027.03;;;1.10;92.36
27643;BME280;15053;48.618;10.024;2023-01-31T04:41:19;95020.34;;;1.09;92.56
27643;BME280;15053;48.618;10.024;2023-01-31T04:43:45;95025.47;;;1.09;92.59
27643;BME280;15053;48.618;10.024;2023-01-31T04:46:12;95017.56;;;1.11;92.59
27643;BME280;15053;48.618;10.024;2023-01-31T04:48:38;95033.50;;;1.13;92.69
27643;BME280;15053;48.618;10.024;2023-01-31T04:51:06;95029.38;;;1.12;92.91
27643;BME280;15053;48.618;10.024;2023-01-31T04:53:33;95033.72;;;1.11;92.53
27643;BME280;15053;48.618;10.024;2023-01-31T04:56:01;95028.59;;;1.11;92.34
27643;BME280;15053;48.618;10.024;2023-01-31T04:58:27;95029.38;;;1.12;92.74
27643;BME280;15053;48.618;10.024;2023-01-31T05:00:54;95035.88;;;1.14;92.11
27643;BME280;15053;48.618;10.024;2023-01-31T05:03:20;95034.09;;;1.15;92.93
27643;BME280;15053;48.618;10.024;2023-01-31T05:05:48;95022.50;;;1.12;92.75
27643;BME280;15053;48.618;10.024;2023-01-31T05:08:15;95036.44;;;1.16;92.24
27643;BME280;15053;48.618;10.024;2023-01-31T05:10:41;95040.00;;;1.15;92.38
27643;BME280;15053;48.618;10.024;2023-01-31T05:13:09;95044.16;;;1.16;92.86
27643;BME280;15053;48.618;10.024;2023-01-31T05:15:35;95043.16;;;1.17;92.97
27643;BME280;15053;48.618;10.024;2023-01-31T05:18:03;95045.91;;;1.16;92.57
27643;BME280;15053;48.618;10.024;2023-01-31T05:20:32;95050.47;;;1.14;93.03
27643;BME280;15053;48.618;10.024;2023-01-31T05:23:02;95035.31;;;1.12;92.50
27643;BME280;15053;48.618;10.024;2023-01-31T05:25:29;95042.00;;;1.13;92.50
27643;BME280;15053;48.618;10.024;2023-01-31T05:27:57;95040.44;;;1.12;92.51
27643;BME280;15053;48.618;10.024;2023-01-31T05:30:23;95036.50;;;1.10;92.71
27643;BME280;15053;48.618;10.024;2023-01-31T05:32:50;95034.72;;;1.10;92.57
27643;BME280;15053;48.618;10.024;2023-01-31T05:35:17;95027.44;;;1.07;91.59
27643;BME280;15053;48.618;10.024;2023-01-31T05:37:44;95038.69;;;1.06;91.75
27643;BME280;15053;48.618;10.024;2023-01-31T05:40:13;95036.56;;;1.03;92.03
27643;BME280;15053;48.618;10.024;2023-01-31T05:42:40;95039.94;;;0.97;92.11
27643;BME280;15053;48.618;10.024;2023-01-31T05:45:08;95038.16;;;0.98;91.56
27643;BME280;15053;48.618;10.024;2023-01-31T05:47:35;95031.69;;;0.95;91.79
27643;BME280;15053;48.618;10.024;2023-01-31T05:50:02;95034.66;;;0.92;91.68
27643;BME280;15053;48.618;10.024;2023-01-31T05:52:29;95039.22;;;0.90;91.66
27643;BME280;15053;48.618;10.024;2023-01-31T05:54:56;95044.16;;;0.85;91.15
27643;BME280;15053;48.618;10.024;2023-01-31T05:57:22;95055.41;;;0.84;91.90
27643;BME280;15053;48.618;10.024;2023-01-31T05:59:49;95051.28;;;0.83;91.83
27643;BME280;15053;48.618;10.024;2023-01-31T06:02:15;95050.13;;;0.79;90.93
27643;BME280;15053;48.618;10.024;2023-01-31T06:04:42;95049.75;;;0.76;91.55
27643;BME280;15053;48.618;10.024;2023-01-31T06:07:08;95052.53;;;0.74;90.80
27643;BME280;15053;48.618;10.024;2023-01-31T06:09:35;95057.28;;;0.71;90.89
27643;BME280;15053;48.618;10.024;2023-01-31T06:12:04;95050.78;;;0.68;91.15
27643;BME280;15053;48.618;10.024;2023-01-31T06:14:30;95054.31;;;0.67;90.91
27643;BME280;15053;48.618;10.024;2023-01-31T06:16:57;95049.59;;;0.64;90.29
27643;BME280;15053;48.618;10.024;2023-01-31T06:19:24;95053.75;;;0.65;90.72
27643;BME280;15053;48.618;10.024;2023-01-31T06:21:51;95055.75;;;0.63;90.75
27643;BME280;15053;48.618;10.024;2023-01-31T06:24:17;95051.03;;;0.60;91.08
27643;BME280;15053;48.618;10.024;2023-01-31T06:26:44;95045.28;;;0.58;90.45
27643;BME280;15053;48.618;10.024;2023-01-31T06:29:10;95046.88;;;0.59;90.80
27643;BME280;15053;48.618;10.024;2023-01-31T06:31:37;95052.00;;;0.59;90.03
27643;BME280;15053;48.618;10.024;2023-01-31T06:34:04;95062.81;;;0.61;90.31
27643;BME280;15053;48.618;10.024;2023-01-31T06:36:31;95064.41;;;0.62;89.96
27643;BME280;15053;48.618;10.024;2023-01-31T06:38:59;95066.75;;;0.64;90.17
27643;BME280;15053;48.618;10.024;2023-01-31T06:41:26;95062.81;;;0.68;90.72
27643;BME280;15053;48.618;10.024;2023-01-31T06:43:52;95065.53;;;0.73;90.94
27643;BME280;15053;48.618;10.024;2023-01-31T06:46:18;95071.03;;;0.76;90.58
27643;BME280;15053;48.618;10.024;2023-01-31T06:48:45;95074.97;;;0.79;90.91
27643;BME280;15053;48.618;10.024;2023-01-31T06:51:14;95067.06;;;0.80;90.47
27643;BME280;15053;48.618;10.024;2023-01-31T06:53:41;95061.94;;;0.80;90.45
27643;BME280;15053;48.618;10.024;2023-01-31T06:56:08;95063.91;;;0.78;89.40
27643;BME280;15053;48.618;10.024;2023-01-31T06:58:35;95067.06;;;0.80;88.76
27643;BME280;15053;48.618;10.024;2023-01-31T07:01:10;95071.41;;;0.80;88.22
27643;BME280;15053;48.618;10.024;2023-01-31T07:03:37;95067.47;;;0.77;88.55
27643;BME280;15053;48.618;10.024;2023-01-31T07:06:05;95071.03;;;0.76;88.39
27643;BME280;15053;48.618;10.024;2023-01-31T07:08:32;95071.84;;;0.77;87.88
27643;BME280;15053;48.618;10.024;2023-01-31T07:11:02;95069.47;;;0.75;87.47
27643;BME280;15053;48.618;10.024;2023-01-31T07:13:28;95075.59;;;0.74;88.24
27643;BME280;15053;48.618;10.024;2023-01-31T07:15:55;95068.66;;;0.75;88.19
27643;BME280;15053;48.618;10.024;2023-01-31T07:18:22;95067.13;;;0.74;87.32
27643;BME280;15053;48.618;10.024;2023-01-31T07:20:49;95067.91;;;0.74;87.63
27643;BME280;15053;48.618;10.024;2023-01-31T07:23:16;95060.41;;;0.73;86.67
27643;BME280;15053;48.618;10.024;2023-01-31T07:25:42;95054.09;;;0.75;86.64
27643;BME280;15053;48.618;10.024;2023-01-31T07:28:10;95063.19;;;0.71;86.98
27643;BME280;15053;48.618;10.024;2023-01-31T07:30:37;95054.50;;;0.72;87.72
27643;BME280;15053;48.618;10.024;2023-01-31T07:33:05;95057.22;;;0.77;87.83
27643;BME280;15053;48.618;10.024;2023-01-31T07:35:31;95056.81;;;0.80;86.54
27643;BME280;15053;48.618;10.024;2023-01-31T07:37:58;95064.88;;;0.84;87.34
27643;BME280;15053;48.618;10.024;2023-01-31T07:40:25;95056.00;;;0.86;86.59
27643;BME280;15053;48.618;10.024;2023-01-31T07:42:56;95057.34;;;0.89;86.34
27643;BME280;15053;48.618;10.024;2023-01-31T07:45:23;95052.78;;;0.91;86.65
27643;BME280;15053;48.618;10.024;2023-01-31T07:47:50;95054.00;;;0.88;86.29
27643;BME280;15053;48.618;10.024;2023-01-31T07:50:17;95056.16;;;0.91;86.70
27643;BME280;15053;48.618;10.024;2023-01-31T07:52:44;95051.44;;;0.88;86.21
27643;BME280;15053;48.618;10.024;2023-01-31T07:55:10;95056.75;;;0.93;86.68
27643;BME280;15053;48.618;10.024;2023-01-31T07:57:37;95057.88;;;0.97;86.81
27643;BME280;15053;48.618;10.024;2023-01-31T08:00:03;95059.47;;;0.98;86.51
27643;BME280;15053;48.618;10.024;2023-01-31T08:02:50;95065.75;;;1.02;86.61
27643;BME280;15053;48.618;10.024;2023-01-31T08:05:54;95070.03;;;1.08;85.66
27643;BME280;15053;48.618;10.024;2023-01-31T08:08:21;95067.63;;;1.13;85.74
27643;BME280;15053;48.618;10.024;2023-01-31T08:10:47;95068.81;;;1.17;86.39
27643;BME280;15053;48.618;10.024;2023-01-31T08:13:14;95055.75;;;1.19;86.41
27643;BME280;15053;48.618;10.024;2023-01-31T08:15:40;95068.75;;;1.24;86.26
27643;BME280;15053;48.618;10.024;2023-01-31T08:18:07;95072.63;;;1.33;86.53
27643;BME280;15053;48.618;10.024;2023-01-31T08:20:33;95062.31;;;1.40;86.34
27643;BME280;15053;48.618;10.024;2023-01-31T08:23:02;95063.03;;;1.47;86.25
27643;BME280;15053;48.618;10.024;2023-01-31T08:25:29;95063.00;;;1.53;85.32
27643;BME280;15053;48.618;10.024;2023-01-31T08:27:56;95054.28;;;1.54;85.34
27643;BME280;15053;48.618;10.024;2023-01-31T08:30:23;95061.53;;;1.64;85.71
27643;BME280;15053;48.618;10.024;2023-01-31T08:32:49;95061.66;;;1.69;85.08
27643;BME280;15053;48.618;10.024;2023-01-31T08:35:16;95063.16;;;1.76;84.66
27643;BME280;15053;48.618;10.024;2023-01-31T08:37:43;95069.47;;;1.81;84.35
27643;BME280;15053;48.618;10.024;2023-01-31T08:40:10;95064.25;;;1.87;84.86
27643;BME280;15053;48.618;10.024;2023-01-31T08:42:36;95057.47;;;1.93;83.63
27643;BME280;15053;48.618;10.024;2023-01-31T08:45:03;95064.56;;;1.97;83.49
27643;BME280;15053;48.618;10.024;2023-01-31T08:47:30;95077.13;;;2.05;83.14
27643;BME280;15053;48.618;10.024;2023-01-31T08:49:56;95076.19;;;2.18;82.26
27643;BME280;15053;48.618;10.024;2023-01-31T08:52:23;95077.25;;;2.28;82.20
27643;BME280;15053;48.618;10.024;2023-01-31T08:54:49;95076.66;;;2.45;81.21
27643;BME280;15053;48.618;10.024;2023-01-31T08:57:16;95077.75;;;2.55;80.62
27643;BME280;15053;48.618;10.024;2023-01-31T08:59:42;95082.38;;;2.65;78.98
27643;BME280;15053;48.618;10.024;2023-01-31T09:02:10;95082.97;;;2.78;78.29
27643;BME280;15053;48.618;10.024;2023-01-31T09:04:37;95080.03;;;2.93;77.39
27643;BME280;15053;48.618;10.024;2023-01-31T09:07:03;95084.47;;;3.16;77.29
27643;BME280;15053;48.618;10.024;2023-01-31T09:09:29;95073.22;;;3.40;76.47
27643;BME280;15053;48.618;10.024;2023-01-31T09:11:56;95077.59;;;3.51;75.43
27643;BME280;15053;48.618;10.024;2023-01-31T09:14:23;95065.50;;;3.51;74.83
27643;BME280;15053;48.618;10.024;2023-01-31T09:16:49;95066.94;;;3.47;73.91
27643;BME280;15053;48.618;10.024;2023-01-31T09:19:16;95077.91;;;3.43;74.19
27643;BME280;15053;48.618;10.024;2023-01-31T09:21:42;95078.56;;;3.38;73.14
27643;BME280;15053;48.618;10.024;2023-01-31T09:24:09;95072.31;;;3.34;72.66
27643;BME280;15053;48.618;10.024;2023-01-31T09:26:36;95082.03;;;3.32;73.33
27643;BME280;15053;48.618;10.024;2023-01-31T09:29:03;95091.31;;;3.33;72.85
27643;BME280;15053;48.618;10.024;2023-01-31T09:31:30;95088.31;;;3.36;73.12
27643;BME280;15053;48.618;10.024;2023-01-31T09:33:56;95093.22;;;3.38;73.57
27643;BME280;15053;48.618;10.024;2023-01-31T09:36:23;95094.44;;;3.35;73.28
27643;BME280;15053;48.618;10.024;2023-01-31T09:38:56;95091.31;;;3.33;73.81
27643;BME280;15053;48.618;10.024;2023-01-31T09:41:36;95110.78;;;3.29;73.57
27643;BME280;15053;48.618;10.024;2023-01-31T09:47:10;95081.75;;;3.11;73.59
27643;BME280;15053;48.618;10.024;2023-01-31T09:49:50;95092.81;;;3.11;73.87
27643;BME280;15053;48.618;10.024;2023-01-31T09:52:18;95092.50;;;3.08;74.30
27643;BME280;15053;48.618;10.024;2023-01-31T09:54:44;95096.41;;;3.10;74.85
27643;BME280;15053;48.618;10.024;2023-01-31T09:59:48;95091.50;;;3.20;74.79
27643;BME280;15053;48.618;10.024;2023-01-31T10:02:41;95085.13;;;3.23;73.80
27643;BME280;15053;48.618;10.024;2023-01-31T10:05:36;95098.81;;;3.23;74.45
27643;BME280;15053;48.618;10.024;2023-01-31T10:10:53;95095.78;;;3.26;73.46
27643;BME280;15053;48.618;10.024;2023-01-31T10:13:23;95090.28;;;3.23;74.36
27643;BME280;15053;48.618;10.024;2023-01-31T10:15:59;95087.47;;;3.24;74.18
27643;BME280;15053;48.618;10.024;2023-01-31T10:18:31;95082.34;;;3.24;73.77
27643;BME280;15053;48.618;10.024;2023-01-31T10:21:03;95070.84;;;3.27;74.10
27643;BME280;15053;48.618;10.024;2023-01-31T10:23:38;95069.63;;;3.29;73.75
27643;BME280;15053;48.618;10.024;2023-01-31T10:26:43;95072.31;;;3.34;73.37
27643;BME280;15053;48.618;10.024;2023-01-31T10:29:26;95064.03;;;3.32;73.11
27643;BME280;15053;48.618;10.024;2023-01-31T10:32:02;95051.16;;;3.32;72.52
27643;BME280;15053;48.618;10.024;2023-01-31T10:34:40;95054.06;;;3.36;72.25
27643;BME280;15053;48.618;10.024;2023-01-31T10:37:14;95052.38;;;3.41;72.04
27643;BME280;15053;48.618;10.024;2023-01-31T10:39:48;95077.78;;;3.49;72.08
27643;BME280;15053;48.618;10.024;2023-01-31T10:42:23;95062.00;;;3.57;71.73
27643;BME280;15053;48.618;10.024;2023-01-31T10:44:56;95061.13;;;3.64;70.91
27643;BME280;15053;48.618;10.024;2023-01-31T10:47:32;95062.25;;;3.68;70.48
27643;BME280;15053;48.618;10.024;2023-01-31T10:50:01;95059.81;;;3.73;71.13
27643;BME280;15053;48.618;10.024;2023-01-31T10:58:20;95035.94;;;4.00;70.72
27643;BME280;15053;48.618;10.024;2023-01-31T11:00:48;95037.81;;;4.05;70.27
27643;BME280;15053;48.618;10.024;2023-01-31T11:03:16;95021.34;;;4.06;70.40
27643;BME280;15053;48.618;10.024;2023-01-31T11:05:56;95021.72;;;3.98;70.31
27643;BME280;15053;48.618;10.024;2023-01-31T11:08:32;95016.66;;;3.91;70.24
27643;BME280;15053;48.618;10.024;2023-01-31T11:11:06;95006.94;;;3.82;70.41
27643;BME280;15053;48.618;10.024;2023-01-31T11:13:33;95004.69;;;3.74;70.37
27643;BME280;15053;48.618;10.024;2023-01-31T11:16:00;95000.31;;;3.63;70.94
27643;BME280;15053;48.618;10.024;2023-01-31T11:18:34;95020.81;;;3.57;71.79
27643;BME280;15053;48.618;10.024;2023-01-31T11:21:02;95020.94;;;3.51;71.85
27643;BME280;15053;48.618;10.024;2023-01-31T11:23:33;95008.41;;;3.66;71.71
27643;BME280;15053;48.618;10.024;2023-01-31T11:26:00;95005.25;;;3.87;71.78
27643;BME280;15053;48.618;10.024;2023-01-31T11:28:40;95007.66;;;4.17;70.91
27643;BME280;15053;48.618;10.024;2023-01-31T11:31:16;94998.66;;;4.59;70.37
27643;BME280;15053;48.618;10.024;2023-01-31T11:33:56;95003.84;;;4.76;69.33
27643;BME280;15053;48.618;10.024;2023-01-31T11:36:23;94995.72;;;4.84;69.32
27643;BME280;15053;48.618;10.024;2023-01-31T11:38:53;94987.59;;;4.92;67.96
27643;BME280;15053;48.618;10.024;2023-01-31T11:41:27;94971.81;;;5.22;68.22
27643;BME280;15053;48.618;10.024;2023-01-31T11:44:07;94964.06;;;5.77;67.01
27643;BME280;15053;48.618;10.024;2023-01-31T11:46:46;94955.19;;;6.06;66.25
27643;BME280;15053;48.618;10.024;2023-01-31T11:49:20;94959.03;;;6.04;63.53
27643;BME280;15053;48.618;10.024;2023-01-31T11:51:48;94972.13;;;5.80;62.83
27643;BME280;15053;48.618;10.024;2023-01-31T11:54:28;94979.47;;;5.50;62.90
27643;BME280;15053;48.618;10.024;2023-01-31T11:56:58;94964.94;;;5.27;63.26
27643;BME280;15053;48.618;10.024;2023-01-31T11:59:28;94969.22;;;5.22;64.53
27643;BME280;15053;48.618;10.024;2023-01-31T12:01:58;94951.81;;;5.12;64.12
27643;BME280;15053;48.618;10.024;2023-01-31T12:04:43;94940.63;;;5.07;64.38
27643;BME280;15053;48.618;10.024;2023-01-31T12:07:22;94932.47;;;5.15;64.10
27643;BME280;15053;48.618;10.024;2023-01-31T12:09:49;94946.50;;;5.02;63.38
27643;BME280;15053;48.618;10.024;2023-01-31T12:12:27;94936.25;;;4.91;64.31
27643;BME280;15053;48.618;10.024;2023-01-31T12:15:00;94926.78;;;4.80;63.34
27643;BME280;15053;48.618;10.024;2023-01-31T12:17:27;94942.97;;;4.75;64.69
27643;BME280;15053;48.618;10.024;2023-01-31T12:20:06;94930.19;;;4.68;65.51
27643;BME280;15053;48.618;10.024;2023-01-31T12:23:17;94920.50;;;4.75;65.22
27643;BME280;15053;48.618;10.024;2023-01-31T12:26:08;94933.72;;;4.62;65.21
27643;BME280;15053;48.618;10.024;2023-01-31T12:28:50;94922.91;;;4.49;66.17
27643;BME280;15053;48.618;10.024;2023-01-31T12:31:36;94909.59;;;4.40;66.34
27643;BME280;15053;48.618;10.024;2023-01-31T12:40:14;94879.00;;;4.15;68.22
27643;BME280;15053;48.618;10.024;2023-01-31T12:42:55;94872.97;;;4.10;67.95
27643;BME280;15053;48.618;10.024;2023-01-31T12:51:27;94882.41;;;4.04;67.81
27643;BME280;15053;48.618;10.024;2023-01-31T12:56:51;94875.06;;;3.96;68.44
27643;BME280;15053;48.618;10.024;2023-01-31T12:59:48;94877.88;;;3.95;68.21
27643;BME280;15053;48.618;10.024;2023-01-31T13:05:55;94870.69;;;3.97;68.27
27643;BME280;15053;48.618;10.024;2023-01-31T13:08:10;94869.31;;;4.06;68.36
27643;BME280;15053;48.618;10.024;2023-01-31T13:13:37;94842.38;;;4.13;67.98
27643;BME280;15053;48.618;10.024;2023-01-31T13:16:36;94837.31;;;4.18;67.57
27643;BME280;15053;48.618;10.024;2023-01-31T13:19:06;94824.66;;;4.17;67.92
27643;BME280;15053;48.618;10.024;2023-01-31T13:21:41;94827.47;;;4.15;67.80
27643;BME280;15053;48.618;10.024;2023-01-31T13:24:11;94830.97;;;4.09;67.92
27643;BME280;15053;48.618;10.024;2023-01-31T13:26:47;94843.75;;;4.04;67.50
27643;BME280;15053;48.618;10.024;2023-01-31T13:29:37;94822.97;;;3.94;68.19
27643;BME280;15053;48.618;10.024;2023-01-31T13:35:02;94820.53;;;3.88;68.17
27643;BME280;15053;48.618;10.024;2023-01-31T13:37:34;94817.41;;;3.86;68.28
27643;BME280;15053;48.618;10.024;2023-01-31T13:40:13;94816.63;;;3.85;68.29
27643;BME280;15053;48.618;10.024;2023-01-31T13:42:42;94810.41;;;3.81;69.06
27643;BME280;15053;48.618;10.024;2023-01-31T13:45:20;94819.38;;;3.79;68.20
27643;BME280;15053;48.618;10.024;2023-01-31T13:48:05;94823.47;;;3.80;68.70
27643;BME280;15053;48.618;10.024;2023-01-31T13:50:38;94833.78;;;3.80;68.77
27643;BME280;15053;48.618;10.024;2023-01-31T13:53:15;94838.16;;;3.79;68.20
27643;BME280;15053;48.618;10.024;2023-01-31T13:55:45;94824.50;;;3.79;68.43
27643;BME280;15053;48.618;10.024;2023-01-31T13:58:17;94835.38;;;3.81;68.02
27643;BME280;15053;48.618;10.024;2023-01-31T14:00:48;94835.28;;;3.76;67.65
27643;BME280;15053;48.618;10.024;2023-01-31T14:03:21;94846.25;;;3.71;68.28
27643;BME280;15053;48.618;10.024;2023-01-31T14:05:57;94831.03;;;3.70;67.76
27643;BME280;15053;48.618;10.024;2023-01-31T14:08:37;94835.94;;;3.71;68.28
27643;BME280;15053;48.618;10.024;2023-01-31T14:14:18;94833.25;;;3.78;69.30
27643;BME280;15053;48.618;10.024;2023-01-31T14:16:46;94834.44;;;3.87;69.27
27643;BME280;15053;48.618;10.024;2023-01-31T14:21:52;94846.50;;;3.98;69.17
27643;BME280;15053;48.618;10.024;2023-01-31T14:27:17;94838.31;;;4.01;69.51
27643;BME280;15053;48.618;10.024;2023-01-31T14:29:47;94836.19;;;3.98;69.53
27643;BME280;15053;48.618;10.024;2023-01-31T14:40:33;94815.47;;;3.93;69.47
27643;BME280;15053;48.618;10.024;2023-01-31T14:48:31;94821.34;;;4.05;68.66